Time;durP1;ratioP1;P1;durP2;ratioP2;P2;SDS_P1;SDS_P2;PMS_P1;PMS_P2;Temp;Humidity;BMP_temperature;BMP_pressure;BME280_temperature;BME280_humidity;BME280_pressure;Samples;Min_cycle;Max_cycle;Signal;HPM_P1;HPM_P2
2021/04/25 00:01:40;;;;;;;10.30;5.70;;;;;;;9.22;59.61;96576.00;5075650;28;20445;-87
2021/04/25 00:04:09;;;;;;;9.37;5.00;;;;;;;9.18;59.69;96564.84;5075582;28;20970;-86
2021/04/25 00:06:36;;;;;;;11.73;6.27;;;;;;;9.09;60.41;96574.09;5075946;28;20901;-86
2021/04/25 00:09:02;;;;;;;10.33;4.73;;;;;;;8.99;60.57;96568.44;5075697;28;20961;-86
2021/04/25 00:11:28;;;;;;;14.77;6.00;;;;;;;8.92;60.81;96569.09;5075473;28;20426;-87
2021/04/25 00:13:54;;;;;;;9.90;5.30;;;;;;;9.00;60.72;96569.16;5074564;28;20519;-86
2021/04/25 00:16:22;;;;;;;10.60;5.43;;;;;;;8.97;60.71;96570.94;5075440;28;20573;-86
2021/04/25 00:18:48;;;;;;;16.70;5.90;;;;;;;8.92;60.94;96563.00;5075438;28;20431;-87
2021/04/25 00:21:17;;;;;;;14.93;6.10;;;;;;;8.85;61.63;96558.97;5075237;28;20452;-87
2021/04/25 00:23:44;;;;;;;7.97;5.10;;;;;;;8.83;61.43;96566.13;5075461;28;20523;-87
2021/04/25 00:26:10;;;;;;;13.00;5.30;;;;;;;8.78;61.95;96558.91;5075155;28;20464;-87
2021/04/25 00:28:36;;;;;;;10.47;5.67;;;;;;;8.75;61.99;96554.56;5076009;28;20501;-87
2021/04/25 00:31:02;;;;;;;7.97;4.73;;;;;;;8.76;61.86;96564.81;5075385;28;20420;-86
2021/04/25 00:33:29;;;;;;;8.57;5.10;;;;;;;8.68;62.50;96564.00;5081012;28;20869;-86
2021/04/25 00:35:55;;;;;;;13.40;5.50;;;;;;;8.73;62.36;96557.06;5075085;28;20527;-86
2021/04/25 00:38:21;;;;;;;7.53;5.13;;;;;;;8.69;62.36;96552.00;5074956;28;20524;-86
2021/04/25 00:40:48;;;;;;;13.33;5.40;;;;;;;8.68;62.33;96555.22;5075521;28;20549;-87
2021/04/25 00:43:14;;;;;;;9.03;4.93;;;;;;;8.60;62.50;96553.16;5078473;28;20598;-88
2021/04/25 00:45:40;;;;;;;10.73;5.27;;;;;;;8.54;62.74;96555.25;5079050;28;20892;-88
2021/04/25 00:48:06;;;;;;;8.63;5.10;;;;;;;8.57;62.88;96550.78;5076512;28;20487;-87
2021/04/25 00:50:33;;;;;;;13.10;5.10;;;;;;;8.49;62.86;96550.69;5076408;28;20464;-87
2021/04/25 00:52:59;;;;;;;8.73;5.20;;;;;;;8.49;63.39;96545.31;5076365;28;20441;-88
2021/04/25 00:55:28;;;;;;;14.17;6.27;;;;;;;8.50;63.47;96543.34;5076302;28;20452;-88
2021/04/25 00:57:56;;;;;;;10.40;5.73;;;;;;;8.51;63.32;96542.84;5079636;28;20420;-88
2021/04/25 01:00:23;;;;;;;10.93;5.17;;;;;;;8.53;63.09;96543.03;5079451;28;20408;-88
2021/04/25 01:02:49;;;;;;;12.23;5.20;;;;;;;8.43;63.68;96544.72;5079005;28;20902;-88
2021/04/25 01:05:18;;;;;;;9.63;6.03;;;;;;;8.43;63.74;96541.31;5078222;28;20544;-86
2021/04/25 01:07:44;;;;;;;7.10;4.63;;;;;;;8.44;63.54;96538.09;5079382;28;20511;-87
2021/04/25 01:10:12;;;;;;;10.93;5.10;;;;;;;8.41;63.59;96543.78;5079769;28;20475;-86
2021/04/25 01:12:39;;;;;;;8.73;5.20;;;;;;;8.35;63.70;96541.22;5078711;28;20516;-86
2021/04/25 01:15:09;;;;;;;7.70;4.43;;;;;;;8.29;64.24;96542.59;5078461;28;20498;-85
2021/04/25 01:17:39;;;;;;;8.67;5.17;;;;;;;8.29;64.35;96540.63;5079384;28;20522;-86
2021/04/25 01:20:07;;;;;;;10.33;5.37;;;;;;;8.25;63.91;96536.75;5079765;28;20447;-86
2021/04/25 01:22:34;;;;;;;6.40;4.70;;;;;;;8.23;64.33;96534.59;5098765;28;20443;-89
2021/04/25 01:25:00;;;;;;;11.70;5.77;;;;;;;8.14;64.77;96540.41;5087424;28;20439;-86
2021/04/25 01:27:26;;;;;;;16.80;5.80;;;;;;;8.13;64.76;96536.28;5091584;28;20436;-88
2021/04/25 01:29:52;;;;;;;11.27;6.13;;;;;;;8.18;64.38;96543.50;5100211;28;20416;-85
2021/04/25 01:32:18;;;;;;;9.80;5.30;;;;;;;8.14;64.87;96537.72;5100624;28;20448;-85
2021/04/25 01:34:44;;;;;;;12.73;5.40;;;;;;;8.16;64.76;96539.88;5080645;28;20466;-88
2021/04/25 01:37:11;;;;;;;11.30;4.90;;;;;;;8.12;64.62;96542.88;5085385;28;20499;-87
2021/04/25 01:39:37;;;;;;;12.07;5.17;;;;;;;8.00;65.19;96549.72;5079441;28;20476;-87
2021/04/25 01:42:04;;;;;;;8.60;5.10;;;;;;;7.87;65.92;96550.44;5079247;28;20506;-87
2021/04/25 01:44:30;;;;;;;8.30;4.60;;;;;;;7.98;65.55;96561.00;5078511;28;20444;-87
2021/04/25 01:46:57;;;;;;;7.60;4.20;;;;;;;8.01;65.45;96559.22;5078522;28;20465;-87
2021/04/25 01:49:23;;;;;;;9.13;5.20;;;;;;;7.79;66.26;96562.31;5078737;28;20822;-85
2021/04/25 01:51:49;;;;;;;8.70;5.00;;;;;;;7.76;66.18;96563.34;5078556;28;20536;-85
2021/04/25 01:54:15;;;;;;;7.20;4.43;;;;;;;7.68;66.54;96563.22;5078414;28;20520;-86
2021/04/25 01:56:42;;;;;;;8.33;4.60;;;;;;;7.75;66.02;96561.91;5078666;28;20436;-86
2021/04/25 01:59:08;;;;;;;10.33;6.23;;;;;;;7.62;66.89;96569.94;5078362;28;20486;-87
2021/04/25 02:01:34;;;;;;;12.07;6.10;;;;;;;7.63;66.78;96566.03;5078145;28;20452;-86
2021/04/25 02:04:01;;;;;;;11.10;5.30;;;;;;;7.52;67.25;96562.28;5078138;28;20527;-86
2021/04/25 02:06:27;;;;;;;9.70;6.57;;;;;;;7.49;67.51;96557.94;5077306;28;20549;-86
2021/04/25 02:08:53;;;;;;;9.03;5.23;;;;;;;7.41;68.15;96551.03;5078295;28;20483;-85
2021/04/25 02:11:19;;;;;;;9.87;5.60;;;;;;;7.36;68.21;96552.56;5077279;28;20499;-86
2021/04/25 02:13:46;;;;;;;10.00;5.53;;;;;;;7.28;68.42;96549.03;5077929;28;20528;-86
2021/04/25 02:16:13;;;;;;;12.07;5.73;;;;;;;7.38;68.60;96552.78;5077604;28;20477;-85
2021/04/25 02:18:39;;;;;;;12.73;7.00;;;;;;;7.38;68.75;96547.41;5078041;28;20513;-86
2021/04/25 02:21:05;;;;;;;11.23;6.07;;;;;;;7.25;69.32;96547.38;5077788;28;20434;-85
2021/04/25 02:23:31;;;;;;;9.23;5.70;;;;;;;7.37;68.35;96545.22;5078136;28;20456;-86
2021/04/25 02:25:58;;;;;;;12.70;5.53;;;;;;;7.41;68.44;96549.06;5077516;28;20444;-85
2021/04/25 02:28:25;;;;;;;9.23;5.10;;;;;;;7.40;68.40;96544.94;5077561;28;20558;-87
2021/04/25 02:30:52;;;;;;;10.30;5.40;;;;;;;7.35;69.06;96542.34;5077650;28;20450;-87
2021/04/25 02:33:18;;;;;;;10.30;5.83;;;;;;;7.38;68.96;96544.00;5077159;28;20453;-88
2021/04/25 02:35:44;;;;;;;13.80;6.10;;;;;;;7.39;68.38;96535.41;5077248;28;20536;-87
2021/04/25 02:38:11;;;;;;;12.33;5.90;;;;;;;7.45;68.20;96546.09;5077334;28;20441;-86
2021/04/25 02:40:37;;;;;;;8.60;5.47;;;;;;;7.39;68.18;96554.22;5077573;28;20420;-86
2021/04/25 02:43:04;;;;;;;11.40;5.13;;;;;;;7.22;69.05;96540.34;5076657;28;20485;-87
2021/04/25 02:45:31;;;;;;;10.33;6.60;;;;;;;7.14;69.86;96536.81;5077389;28;20428;-87
2021/04/25 02:48:00;;;;;;;11.50;6.23;;;;;;;7.18;69.84;96534.56;5077384;28;20509;-86
2021/04/25 02:50:28;;;;;;;7.63;5.50;;;;;;;7.13;70.08;96532.69;5077102;28;20503;-87
2021/04/25 02:52:55;;;;;;;12.70;7.00;;;;;;;7.17;69.27;96530.44;5077544;28;20509;-86
2021/04/25 02:55:21;;;;;;;10.70;5.93;;;;;;;7.16;69.66;96536.31;5078321;28;20444;-86
2021/04/25 02:57:48;;;;;;;9.40;5.70;;;;;;;7.09;70.13;96529.59;5079331;28;20528;-86
2021/04/25 03:00:17;;;;;;;11.40;6.90;;;;;;;7.02;70.14;96529.47;5077468;28;20495;-86
2021/04/25 03:02:43;;;;;;;11.80;5.50;;;;;;;7.06;70.44;96527.91;5077346;28;20564;-86
2021/04/25 03:05:12;;;;;;;10.03;6.60;;;;;;;7.13;70.09;96521.22;5076829;28;20544;-86
2021/04/25 03:07:38;;;;;;;11.30;6.20;;;;;;;7.18;69.61;96517.72;5077749;28;20469;-87
2021/04/25 03:10:07;;;;;;;9.43;5.77;;;;;;;7.10;69.82;96520.31;5079380;28;20532;-86
2021/04/25 03:12:33;;;;;;;13.93;5.83;;;;;;;7.01;70.48;96526.06;5080161;28;20497;-86
2021/04/25 03:14:59;;;;;;;14.13;6.47;;;;;;;7.06;70.09;96529.88;5092359;28;20505;-89
2021/04/25 03:17:25;;;;;;;11.93;5.77;;;;;;;7.17;69.58;96514.34;5087900;28;20576;-87
2021/04/25 03:19:51;;;;;;;12.03;6.93;;;;;;;7.17;69.51;96516.28;5075963;28;20408;-87
2021/04/25 03:22:18;;;;;;;16.13;7.30;;;;;;;7.09;69.62;96512.75;5077062;28;20451;-87
2021/04/25 03:24:44;;;;;;;9.83;5.60;;;;;;;6.96;70.34;96521.50;5076712;28;20532;-86
2021/04/25 03:27:11;;;;;;;9.03;5.10;;;;;;;6.99;69.85;96531.19;5076991;28;20572;-86
2021/04/25 03:29:37;;;;;;;14.13;6.63;;;;;;;7.14;69.81;96511.97;5076220;28;20479;-87
2021/04/25 03:32:03;;;;;;;11.03;5.67;;;;;;;7.17;69.15;96513.63;5077383;28;20536;-87
2021/04/25 03:34:30;;;;;;;16.63;5.90;;;;;;;7.14;69.47;96520.00;5077056;28;20430;-86
2021/04/25 03:36:56;;;;;;;12.10;6.30;;;;;;;7.05;69.71;96520.41;5076173;28;20552;-86
2021/04/25 03:39:23;;;;;;;10.83;6.40;;;;;;;6.91;70.61;96520.34;5075833;28;20424;-87
2021/04/25 03:41:49;;;;;;;11.53;7.33;;;;;;;6.88;70.59;96515.28;5075670;28;20494;-87
2021/04/25 03:44:15;;;;;;;11.57;5.77;;;;;;;6.92;70.30;96511.06;5075795;28;20481;-86
2021/04/25 03:46:41;;;;;;;14.13;5.73;;;;;;;6.98;70.30;96521.72;5076286;28;20480;-87
2021/04/25 03:49:08;;;;;;;12.23;5.60;;;;;;;6.91;70.54;96527.69;5076312;28;20957;-86
2021/04/25 03:51:34;;;;;;;10.73;6.07;;;;;;;6.83;70.61;96526.81;5076297;28;20466;-87
2021/04/25 03:54:00;;;;;;;8.90;5.87;;;;;;;6.76;71.00;96524.75;5076574;28;20473;-86
2021/04/25 03:56:27;;;;;;;15.80;6.90;;;;;;;6.78;70.52;96530.31;5076826;28;20534;-87
2021/04/25 03:58:53;;;;;;;14.50;5.97;;;;;;;6.75;71.09;96531.31;5076837;28;20433;-86
2021/04/25 04:01:19;;;;;;;8.90;6.33;;;;;;;6.61;71.22;96535.91;5077212;28;20442;-86
2021/04/25 04:03:45;;;;;;;12.70;5.80;;;;;;;6.60;71.69;96528.38;5076730;28;20568;-87
2021/04/25 04:06:11;;;;;;;11.57;6.37;;;;;;;6.50;72.65;96529.97;5076292;28;20454;-86
2021/04/25 04:08:37;;;;;;;10.93;6.27;;;;;;;6.44;72.52;96541.50;5081816;28;20924;-86
2021/04/25 04:11:04;;;;;;;13.73;5.57;;;;;;;6.40;72.56;96533.03;5076810;28;21030;-86
2021/04/25 04:13:31;;;;;;;9.60;5.70;;;;;;;6.55;71.84;96537.94;5077134;28;20434;-87
2021/04/25 04:15:57;;;;;;;9.13;5.73;;;;;;;6.59;71.67;96533.00;5076450;28;20472;-86
2021/04/25 04:18:23;;;;;;;12.23;6.80;;;;;;;6.54;72.01;96531.13;5077082;28;20540;-87
2021/04/25 04:20:49;;;;;;;13.47;6.20;;;;;;;6.57;71.92;96535.47;5076769;28;20435;-86
2021/04/25 04:23:15;;;;;;;11.33;6.20;;;;;;;6.58;71.76;96546.94;5076582;28;20489;-86
2021/04/25 04:25:41;;;;;;;11.77;5.60;;;;;;;6.58;71.58;96544.97;5077070;28;21012;-86
2021/04/25 04:28:07;;;;;;;13.83;5.73;;;;;;;6.71;71.81;96542.34;5097894;28;20465;-90
2021/04/25 04:30:34;;;;;;;24.57;9.30;;;;;;;6.76;70.96;96541.56;5100058;28;20441;-90
2021/04/25 04:33:01;;;;;;;10.70;6.83;;;;;;;6.94;70.37;96550.78;5101786;28;20433;-91
2021/04/25 04:35:27;;;;;;;7.60;5.73;;;;;;;7.08;69.97;96546.22;5099820;28;20465;-87
2021/04/25 04:37:54;;;;;;;9.73;5.83;;;;;;;7.09;70.04;96553.72;5081166;28;20782;-86
2021/04/25 04:40:20;;;;;;;7.50;5.30;;;;;;;7.34;69.13;96554.31;5080077;28;20495;-85
2021/04/25 04:42:46;;;;;;;16.73;7.60;;;;;;;7.42;68.01;96549.78;5080760;28;20892;-86
2021/04/25 04:45:13;;;;;;;12.47;6.60;;;;;;;7.59;68.16;96562.91;5080324;28;20499;-86
2021/04/25 04:47:42;;;;;;;11.67;6.33;;;;;;;7.84;67.00;96572.22;5080299;28;20426;-85
2021/04/25 04:50:08;;;;;;;10.57;5.77;;;;;;;7.89;66.57;96584.84;5079788;28;20424;-85
2021/04/25 04:52:35;;;;;;;12.23;6.13;;;;;;;7.83;66.53;96579.56;5079733;28;20838;-86
2021/04/25 04:55:01;;;;;;;10.70;6.87;;;;;;;8.15;66.31;96587.53;5079783;28;20555;-85
2021/04/25 04:57:27;;;;;;;12.93;6.07;;;;;;;8.44;64.42;96578.44;5080404;28;20432;-85
2021/04/25 04:59:53;;;;;;;19.37;5.67;;;;;;;8.85;63.30;96579.78;5079851;28;20539;-85
2021/04/25 05:02:19;;;;;;;13.03;5.63;;;;;;;8.89;62.82;96577.50;5079423;28;20441;-85
2021/04/25 05:04:46;;;;;;;11.53;6.47;;;;;;;8.97;62.80;96584.41;5079933;28;20505;-85
2021/04/25 05:07:13;;;;;;;11.20;6.07;;;;;;;9.17;61.63;96582.25;5080275;28;20507;-85
2021/04/25 05:09:39;;;;;;;10.23;6.60;;;;;;;9.36;61.41;96583.50;5080312;28;20435;-85
2021/04/25 05:12:06;;;;;;;11.47;6.73;;;;;;;9.56;60.31;96585.44;5079407;28;20445;-85
2021/04/25 05:14:32;;;;;;;10.83;6.70;;;;;;;9.02;61.94;96585.53;5079976;28;21017;-86
2021/04/25 05:16:58;;;;;;;7.73;6.13;;;;;;;9.31;61.26;96589.00;5079982;28;20476;-86
2021/04/25 05:19:24;;;;;;;11.47;6.03;;;;;;;9.57;60.50;96586.91;5080724;28;20497;-86
2021/04/25 05:21:51;;;;;;;14.53;6.30;;;;;;;9.56;60.34;96590.09;5080266;28;20537;-86
2021/04/25 05:24:17;;;;;;;16.00;6.90;;;;;;;10.12;58.80;96594.81;5080195;28;20908;-86
2021/04/25 05:26:43;;;;;;;10.30;5.67;;;;;;;10.57;57.53;96599.72;5079352;28;20530;-85
2021/04/25 05:29:09;;;;;;;15.43;7.13;;;;;;;10.56;57.61;96600.97;5080275;28;20451;-86
2021/04/25 05:31:36;;;;;;;16.53;7.70;;;;;;;10.49;57.86;96604.38;5080269;28;20525;-86
2021/04/25 05:34:03;;;;;;;16.83;8.20;;;;;;;10.68;57.20;96605.53;5080121;28;20453;-88
2021/04/25 05:36:29;;;;;;;12.03;6.30;;;;;;;11.27;55.58;96608.22;5080060;28;20672;-87
2021/04/25 05:38:56;;;;;;;14.77;7.70;;;;;;;11.74;54.14;96611.16;5079497;28;20437;-88
2021/04/25 05:41:22;;;;;;;12.80;7.20;;;;;;;12.35;52.02;96617.19;5078267;28;20537;-87
2021/04/25 05:43:48;;;;;;;11.33;7.30;;;;;;;12.10;53.09;96615.59;5079531;28;20512;-87
2021/04/25 05:46:14;;;;;;;13.13;7.90;;;;;;;12.46;51.36;96616.06;5079795;28;20449;-87
2021/04/25 05:48:40;;;;;;;9.80;7.03;;;;;;;12.86;50.30;96616.81;5080233;28;20443;-86
2021/04/25 05:51:07;;;;;;;12.57;7.10;;;;;;;12.48;50.74;96621.66;5079599;28;20934;-86
2021/04/25 05:53:33;;;;;;;11.30;7.00;;;;;;;12.61;50.91;96621.44;5079536;28;20468;-86
2021/04/25 05:56:00;;;;;;;12.50;7.70;;;;;;;12.94;49.93;96629.63;5079790;28;20560;-86
2021/04/25 05:58:26;;;;;;;13.80;7.97;;;;;;;12.72;50.48;96636.53;5079808;28;20532;-85
2021/04/25 06:00:52;;;;;;;10.90;7.57;;;;;;;12.83;50.45;96636.88;5079105;28;20444;-86
2021/04/25 06:03:18;;;;;;;18.40;7.50;;;;;;;13.29;49.01;96636.66;5080393;28;20576;-86
2021/04/25 06:05:44;;;;;;;13.43;8.20;;;;;;;13.56;48.14;96631.44;5079129;28;20541;-87
2021/04/25 06:08:10;;;;;;;14.20;8.10;;;;;;;13.35;48.73;96639.88;5079348;28;20534;-86
2021/04/25 06:10:36;;;;;;;18.53;8.20;;;;;;;13.70;47.98;96636.03;5079028;28;20450;-86
2021/04/25 06:13:03;;;;;;;10.37;6.50;;;;;;;13.57;48.32;96632.84;5079489;28;20520;-87
2021/04/25 06:15:29;;;;;;;15.30;8.50;;;;;;;13.25;48.85;96642.47;5079225;28;20496;-87
2021/04/25 06:17:57;;;;;;;15.00;8.03;;;;;;;13.16;49.16;96643.06;5078881;28;20518;-86
2021/04/25 06:20:23;;;;;;;12.10;7.57;;;;;;;13.53;48.99;96635.25;5079108;28;20449;-87
2021/04/25 06:22:49;;;;;;;12.60;7.33;;;;;;;13.76;47.62;96644.66;5080545;28;20985;-87
2021/04/25 06:25:17;;;;;;;11.67;8.30;;;;;;;13.45;48.19;96648.13;5079938;28;20477;-86
2021/04/25 06:27:44;;;;;;;17.20;8.53;;;;;;;13.65;48.25;96642.41;5079970;28;20595;-87
2021/04/25 06:30:14;;;;;;;13.90;7.60;;;;;;;13.56;48.04;96648.44;5080632;28;20485;-87
2021/04/25 06:32:40;;;;;;;14.13;8.83;;;;;;;13.14;49.20;96647.59;5080970;28;20509;-86
2021/04/25 06:35:08;;;;;;;14.90;8.40;;;;;;;13.51;48.73;96646.63;5079840;28;20544;-86
2021/04/25 06:37:34;;;;;;;13.40;8.17;;;;;;;13.37;48.94;96659.72;5079414;28;20851;-86
2021/04/25 06:40:00;;;;;;;16.97;8.90;;;;;;;13.82;47.82;96656.00;5078950;28;20987;-86
2021/04/25 06:42:26;;;;;;;15.10;8.50;;;;;;;14.49;46.65;96655.97;5081618;28;20462;-87
2021/04/25 06:44:52;;;;;;;17.33;8.67;;;;;;;13.97;47.18;96649.72;5079489;28;20485;-87
2021/04/25 06:47:19;;;;;;;16.43;9.03;;;;;;;14.67;45.85;96657.41;5080019;28;20946;-87
2021/04/25 06:49:45;;;;;;;14.53;8.90;;;;;;;14.61;46.16;96661.63;5081191;28;20539;-87
2021/04/25 06:52:12;;;;;;;18.03;9.20;;;;;;;14.74;45.89;96662.03;5079929;28;20930;-88
2021/04/25 06:54:38;;;;;;;11.60;8.00;;;;;;;13.96;47.10;96656.44;5080057;28;20453;-87
2021/04/25 06:57:05;;;;;;;14.37;8.93;;;;;;;13.64;48.11;96656.50;5080460;28;20525;-87
2021/04/25 06:59:31;;;;;;;18.30;10.30;;;;;;;12.97;49.52;96658.31;5078701;28;20465;-87
2021/04/25 07:01:57;;;;;;;16.57;9.03;;;;;;;13.78;48.49;96655.66;5078273;28;20525;-87
2021/04/25 07:04:24;;;;;;;15.73;10.40;;;;;;;13.45;48.34;96659.69;5078819;28;20517;-87
2021/04/25 07:06:50;;;;;;;15.83;10.27;;;;;;;14.34;47.19;96667.72;5079234;28;20493;-87
2021/04/25 07:09:16;;;;;;;15.13;9.60;;;;;;;14.46;46.59;96665.22;5080328;28;20520;-88
2021/04/25 07:11:42;;;;;;;14.83;9.53;;;;;;;14.72;45.87;96672.03;5078744;28;20441;-87
2021/04/25 07:14:08;;;;;;;21.90;12.13;;;;;;;14.91;45.38;96675.59;5077541;28;20449;-87
2021/04/25 07:16:34;;;;;;;13.83;10.20;;;;;;;15.24;44.41;96672.66;5077955;28;20470;-87
2021/04/25 07:19:00;;;;;;;16.20;11.00;;;;;;;14.15;46.71;96662.06;5082999;28;20513;-87
2021/04/25 07:21:28;;;;;;;15.80;10.60;;;;;;;14.90;45.40;96673.44;5082043;28;20449;-87
2021/04/25 07:23:54;;;;;;;14.03;9.90;;;;;;;15.41;43.83;96672.63;5078590;28;20481;-88
2021/04/25 07:26:20;;;;;;;17.73;11.77;;;;;;;14.53;46.15;96667.16;5078089;28;20618;-88
2021/04/25 07:28:46;;;;;;;20.60;10.77;;;;;;;14.98;45.38;96671.34;5078182;28;20773;-87
2021/04/25 07:31:12;;;;;;;23.67;11.53;;;;;;;15.13;44.32;96659.59;5096128;28;20417;-86
2021/04/25 07:33:39;;;;;;;21.53;11.93;;;;;;;15.38;43.60;96665.59;5098135;28;20424;-83
2021/04/25 07:36:08;;;;;;;22.27;10.87;;;;;;;15.02;44.74;96668.94;5097981;28;20473;-87
2021/04/25 07:38:36;;;;;;;15.00;11.13;;;;;;;15.33;44.66;96667.28;5098037;28;20464;-86
2021/04/25 07:41:03;;;;;;;17.73;11.60;;;;;;;15.42;43.68;96671.31;5080205;28;20598;-87
2021/04/25 07:43:29;;;;;;;21.60;13.30;;;;;;;15.44;43.84;96666.06;5076955;28;20484;-87
2021/04/25 07:45:55;;;;;;;15.63;11.53;;;;;;;15.31;44.36;96664.41;5077569;28;20548;-87
2021/04/25 07:48:21;;;;;;;15.70;12.20;;;;;;;15.65;43.50;96665.59;5078310;28;20490;-87
2021/04/25 07:50:47;;;;;;;20.33;12.60;;;;;;;14.73;45.47;96663.31;5079661;28;20455;-88
2021/04/25 07:53:15;;;;;;;18.00;12.20;;;;;;;14.50;46.26;96673.72;5081602;28;20529;-88
2021/04/25 07:55:47;;;;;;;16.53;12.20;;;;;;;14.40;46.01;96662.75;5088545;28;20475;-86
2021/04/25 07:58:13;;;;;;;15.30;11.63;;;;;;;14.87;45.45;96661.00;5097806;28;20497;-87
2021/04/25 08:00:39;;;;;;;21.53;12.90;;;;;;;14.66;46.27;96664.09;5097913;28;20484;-87
2021/04/25 08:03:06;;;;;;;20.87;13.00;;;;;;;14.22;46.86;96657.84;5093067;28;20978;-86
2021/04/25 08:05:33;;;;;;;17.07;12.40;;;;;;;13.95;46.79;96658.44;5077369;28;20967;-88
2021/04/25 08:07:59;;;;;;;27.50;13.33;;;;;;;14.15;47.06;96661.34;5078114;28;20455;-88
2021/04/25 08:10:25;;;;;;;20.53;12.40;;;;;;;13.50;49.09;96656.03;5078802;28;20514;-88
2021/04/25 08:12:52;;;;;;;17.47;12.40;;;;;;;13.78;48.45;96657.66;5078633;28;20456;-89
2021/04/25 08:15:20;;;;;;;19.10;12.30;;;;;;;14.20;47.52;96652.97;5079370;28;20493;-89
2021/04/25 08:17:46;;;;;;;15.07;12.33;;;;;;;13.90;48.16;96655.94;5081139;28;20499;-87
2021/04/25 08:20:14;;;;;;;20.30;12.63;;;;;;;13.87;48.44;96654.34;5079192;28;20441;-87
2021/04/25 08:22:40;;;;;;;22.67;12.97;;;;;;;13.27;49.58;96653.47;5093419;28;20509;-88
2021/04/25 08:25:07;;;;;;;25.93;13.90;;;;;;;13.51;48.93;96656.75;5093170;28;20989;-87
2021/04/25 08:27:33;;;;;;;17.20;12.10;;;;;;;13.68;48.68;96660.28;5094874;28;20464;-87
2021/04/25 08:30:00;;;;;;;23.40;14.13;;;;;;;13.98;47.90;96664.72;5094447;28;20465;-86
2021/04/25 08:32:26;;;;;;;19.90;11.93;;;;;;;13.72;48.51;96666.00;5092666;28;20449;-87
2021/04/25 08:34:52;;;;;;;23.73;12.10;;;;;;;14.04;47.59;96667.22;5080037;28;20445;-87
2021/04/25 08:37:18;;;;;;;23.10;14.00;;;;;;;13.00;50.54;96671.47;5078626;28;20502;-87
2021/04/25 08:39:44;;;;;;;21.50;13.67;;;;;;;12.99;51.02;96664.63;5070235;28;20445;-89
2021/04/25 08:42:12;;;;;;;20.67;12.40;;;;;;;12.84;51.23;96665.38;5078524;28;20441;-88
2021/04/25 08:44:42;;;;;;;19.30;13.00;;;;;;;12.62;52.32;96666.19;5078225;28;20481;-88
2021/04/25 08:47:09;;;;;;;20.93;14.87;;;;;;;12.39;52.55;96667.50;5078356;28;20410;-88
2021/04/25 08:49:36;;;;;;;21.27;13.83;;;;;;;12.55;52.52;96666.22;5079839;28;20462;-87
2021/04/25 08:52:02;;;;;;;23.43;15.67;;;;;;;12.73;52.64;96668.50;5080546;28;20505;-87
2021/04/25 08:54:30;;;;;;;21.90;15.30;;;;;;;12.46;53.53;96664.78;5081973;28;20491;-88
2021/04/25 08:56:56;;;;;;;22.43;13.20;;;;;;;12.56;52.14;96662.94;5096557;28;20466;-88
2021/04/25 08:59:22;;;;;;;22.90;14.03;;;;;;;12.48;52.69;96675.78;5083626;28;20470;-87
2021/04/25 09:01:48;;;;;;;28.83;13.63;;;;;;;12.53;52.55;96674.84;5079783;28;20454;-89
2021/04/25 09:04:15;;;;;;;22.83;13.60;;;;;;;12.41;53.15;96667.66;5078457;28;20485;-88
2021/04/25 09:07:03;;;;;;;21.43;13.43;;;;;;;12.64;51.96;96665.63;5077479;28;20565;-86
2021/04/25 09:09:42;;;;;;;17.83;13.20;;;;;;;12.67;51.01;96659.13;5077925;28;20497;-87
2021/04/25 09:12:09;;;;;;;17.57;12.37;;;;;;;12.61;51.29;96678.28;5076606;28;20399;-87
2021/04/25 09:14:38;;;;;;;23.43;13.20;;;;;;;12.10;51.88;96667.00;5076282;28;20444;-86
2021/04/25 09:17:05;;;;;;;26.07;13.67;;;;;;;12.12;52.35;96664.50;5077980;28;20448;-87
2021/04/25 09:19:51;;;;;;;15.70;10.27;;;;;;;12.01;51.69;96654.75;5081222;28;20445;-88
2021/04/25 09:22:19;;;;;;;19.20;12.60;;;;;;;12.01;52.31;96654.03;5080715;28;20433;-86
2021/04/25 09:24:45;;;;;;;27.23;12.13;;;;;;;12.31;51.78;96657.41;5080831;28;20527;-88
2021/04/25 09:27:11;;;;;;;22.93;12.00;;;;;;;12.39;50.99;96665.53;5081792;28;20523;-85
2021/04/25 09:29:48;;;;;;;17.77;11.33;;;;;;;12.32;50.54;96658.84;5081398;28;20506;-87
2021/04/25 09:32:19;;;;;;;21.90;13.10;;;;;;;12.12;51.75;96659.06;5080571;28;20431;-87
2021/04/25 09:34:46;;;;;;;17.20;11.90;;;;;;;12.28;52.05;96663.19;5083101;28;20939;-88
2021/04/25 09:37:18;;;;;;;19.30;12.47;;;;;;;12.47;51.56;96652.69;5084766;28;20464;-88
2021/04/25 09:39:59;;;;;;;21.07;13.30;;;;;;;12.83;50.57;96653.13;5081538;28;20495;-88
2021/04/25 09:42:25;;;;;;;18.87;12.47;;;;;;;12.34;50.56;96656.31;5083187;28;20893;-87
2021/04/25 09:44:51;;;;;;;19.00;12.53;;;;;;;12.43;49.89;96655.06;5081362;28;20485;-87
2021/04/25 09:47:17;;;;;;;20.20;12.30;;;;;;;12.44;50.07;96656.47;5080705;28;20509;-88
2021/04/25 09:49:46;;;;;;;15.53;10.63;;;;;;;12.55;49.91;96645.28;5081271;28;20423;-88
2021/04/25 09:52:14;;;;;;;17.10;11.30;;;;;;;12.61;49.63;96651.22;5080824;28;20524;-86
2021/04/25 09:54:41;;;;;;;13.97;10.90;;;;;;;12.58;49.63;96655.00;5080089;28;20510;-87
2021/04/25 09:57:29;;;;;;;19.60;11.47;;;;;;;12.65;49.11;96656.97;5080055;28;20427;-86
2021/04/25 09:59:55;;;;;;;19.60;12.50;;;;;;;12.73;49.38;96652.25;5081369;28;20426;-87
2021/04/25 10:02:21;;;;;;;19.57;10.47;;;;;;;12.98;48.50;96646.91;5082088;28;20437;-87
2021/04/25 10:04:47;;;;;;;21.87;11.80;;;;;;;13.11;48.83;96645.97;5080020;28;20556;-86
2021/04/25 10:07:14;;;;;;;18.73;11.53;;;;;;;12.84;49.52;96651.84;5080501;28;20449;-86
2021/04/25 10:09:41;;;;;;;19.50;11.10;;;;;;;12.84;48.84;96649.13;5081035;28;20423;-86
2021/04/25 10:12:07;;;;;;;14.30;10.50;;;;;;;12.94;48.93;96637.75;5079218;28;20477;-87
2021/04/25 10:14:34;;;;;;;17.80;11.00;;;;;;;13.04;49.36;96644.72;5081302;28;20801;-87
2021/04/25 10:17:02;;;;;;;16.70;11.87;;;;;;;13.44;48.25;96641.28;5080398;28;20474;-87
2021/04/25 10:19:30;;;;;;;18.97;11.70;;;;;;;13.72;47.77;96638.19;5080200;28;20981;-87
2021/04/25 10:21:56;;;;;;;18.03;11.20;;;;;;;13.69;46.94;96640.00;5082186;28;20431;-86
2021/04/25 10:24:22;;;;;;;15.53;11.33;;;;;;;13.88;47.14;96629.38;5082577;28;20467;-88
2021/04/25 10:26:54;;;;;;;17.83;11.43;;;;;;;13.63;46.45;96655.03;5083272;28;20882;-87
2021/04/25 10:29:25;;;;;;;16.80;10.10;;;;;;;13.45;47.28;96640.72;5086606;28;20445;-88
2021/04/25 10:31:57;;;;;;;14.57;9.57;;;;;;;13.41;47.45;96645.78;5088531;28;20489;-87
2021/04/25 10:34:25;;;;;;;17.00;10.73;;;;;;;13.48;47.67;96630.75;5093268;28;20391;-88
2021/04/25 10:37:04;;;;;;;17.10;12.40;;;;;;;13.32;49.28;96654.53;5099345;28;20500;-88
2021/04/25 10:39:35;;;;;;;17.70;12.60;;;;;;;13.30;49.53;96638.09;5098600;28;20449;-89
2021/04/25 10:42:29;;;;;;;15.97;10.77;;;;;;;13.52;48.49;96631.81;5099337;28;20420;-88
2021/04/25 10:45:24;;;;;;;19.47;13.00;;;;;;;13.30;48.54;96632.69;5083644;28;20542;-88
2021/04/25 10:48:24;;;;;;;16.40;9.17;;;;;;;13.24;46.80;96643.75;5082464;28;20438;-88
2021/04/25 10:50:52;;;;;;;14.30;10.00;;;;;;;13.25;48.08;96634.31;5082268;28;20527;-87
2021/04/25 10:53:22;;;;;;;15.00;10.20;;;;;;;13.57;46.97;96620.03;5081724;28;20442;-88
2021/04/25 10:55:50;;;;;;;15.67;10.60;;;;;;;13.96;46.47;96634.72;5081041;28;20489;-88
2021/04/25 10:58:22;;;;;;;18.17;10.33;;;;;;;14.10;45.22;96629.72;5080179;28;20440;-88
2021/04/25 11:00:49;;;;;;;13.80;9.80;;;;;;;13.90;46.02;96639.66;5079984;28;20453;-88
2021/04/25 11:03:42;;;;;;;15.10;10.43;;;;;;;13.86;46.10;96626.50;5080720;28;20543;-88
2021/04/25 11:06:27;;;;;;;15.87;9.27;;;;;;;13.85;45.35;96627.75;5081648;28;20536;-87
2021/04/25 11:08:54;;;;;;;14.00;8.80;;;;;;;13.80;44.47;96626.00;5081067;28;20480;-88
2021/04/25 11:11:34;;;;;;;17.90;9.57;;;;;;;14.03;43.83;96630.53;5088983;28;20404;-86
2021/04/25 11:14:03;;;;;;;16.17;9.67;;;;;;;14.18;43.45;96628.38;5085092;28;20487;-88
2021/04/25 11:16:30;;;;;;;14.90;9.10;;;;;;;13.79;43.67;96629.97;5079214;28;20456;-85
2021/04/25 11:18:59;;;;;;;22.60;8.80;;;;;;;14.00;43.62;96621.50;5077221;28;20446;-87
2021/04/25 11:21:50;;;;;;;10.77;7.77;;;;;;;13.98;43.43;96632.19;5077606;28;20756;-87
2021/04/25 11:24:43;;;;;;;9.80;7.70;;;;;;;14.00;42.35;96618.78;5077578;28;20451;-86
2021/04/25 11:27:33;;;;;;;13.20;7.27;;;;;;;14.12;41.66;96622.47;5078413;28;20472;-86
2021/04/25 11:30:01;;;;;;;9.57;7.70;;;;;;;14.19;40.45;96624.38;5078133;28;20481;-86